Time;durP1;ratioP1;P1;durP2;ratioP2;P2;SDS_P1;SDS_P2;PMS_P1;PMS_P2;Temp;Humidity;BMP_temperature;BMP_pressure;BME280_temperature;BME280_humidity;BME280_pressure;Samples;Min_cycle;Max_cycle;Signal;HPM_P1;HPM_P2
2023/08/26 00:00:19;;;;;;;7.37;6.63;;;18.90;99.90;;;;;;5050458;28;20178;-70
2023/08/26 00:02:45;;;;;;;11.70;8.13;;;18.90;99.90;;;;;;5031729;28;20191;-71
2023/08/26 00:05:10;;;;;;;9.33;7.67;;;18.90;99.90;;;;;;5031531;28;20217;-70
2023/08/26 00:07:36;;;;;;;8.40;6.77;;;18.90;99.90;;;;;;5031610;28;20209;-72
2023/08/26 00:10:02;;;;;;;11.00;7.00;;;18.90;99.90;;;;;;5031762;28;20730;-70
2023/08/26 00:12:27;;;;;;;9.37;6.90;;;18.90;99.90;;;;;;5031790;28;20191;-70
2023/08/26 00:14:53;;;;;;;10.93;7.60;;;18.80;99.90;;;;;;5031429;28;20168;-71
2023/08/26 00:17:18;;;;;;;8.33;7.47;;;18.80;99.90;;;;;;5040132;28;20210;-71
2023/08/26 00:19:44;;;;;;;8.37;7.23;;;18.60;99.90;;;;;;5049355;28;20171;-71
2023/08/26 00:22:10;;;;;;;9.90;7.57;;;18.60;99.90;;;;;;5051972;28;20191;-71
2023/08/26 00:24:36;;;;;;;13.37;7.57;;;18.50;99.90;;;;;;5055369;28;20522;-71
2023/08/26 00:27:02;;;;;;;8.87;7.90;;;18.40;99.90;;;;;;5055191;28;20406;-72
2023/08/26 00:29:27;;;;;;;10.37;9.10;;;18.30;99.90;;;;;;5055396;28;20171;-71
2023/08/26 00:31:53;;;;;;;12.33;8.37;;;18.30;99.90;;;;;;5055154;28;20187;-69
2023/08/26 00:34:18;;;;;;;11.50;7.63;;;18.20;99.90;;;;;;5046012;28;20565;-71
2023/08/26 00:36:44;;;;;;;12.53;8.10;;;18.30;99.90;;;;;;5034958;28;20771;-71
2023/08/26 00:39:09;;;;;;;10.47;8.23;;;18.30;99.90;;;;;;5033924;28;20221;-72
2023/08/26 00:41:35;;;;;;;8.90;7.80;;;18.40;99.90;;;;;;5035015;28;20168;-71
2023/08/26 00:44:00;;;;;;;9.83;8.37;;;18.40;99.90;;;;;;5043574;28;20171;-71
2023/08/26 00:46:26;;;;;;;13.50;9.10;;;18.40;99.90;;;;;;5052279;28;20185;-70
2023/08/26 00:48:52;;;;;;;12.57;8.50;;;18.40;99.90;;;;;;5054906;28;20221;-71
2023/08/26 00:51:19;;;;;;;7.57;6.63;;;18.40;99.90;;;;;;5054938;28;20175;-70
2023/08/26 00:53:46;;;;;;;12.43;6.90;;;18.40;99.90;;;;;;5054825;28;20187;-69
2023/08/26 00:56:12;;;;;;;14.37;7.83;;;18.40;99.90;;;;;;5054518;28;20806;-69
2023/08/26 00:58:37;;;;;;;7.77;6.97;;;18.30;99.90;;;;;;5053426;28;20405;-71
2023/08/26 01:01:04;;;;;;;10.87;5.73;;;18.40;99.90;;;;;;5049320;28;20183;-72
2023/08/26 01:03:29;;;;;;;7.27;5.83;;;18.30;99.90;;;;;;5034785;28;20187;-73
2023/08/26 01:05:55;;;;;;;9.83;5.63;;;18.30;99.90;;;;;;5034453;28;20398;-70
2023/08/26 01:08:21;;;;;;;9.60;8.20;;;18.30;99.90;;;;;;5033534;28;20552;-70
2023/08/26 01:10:55;;;;;;;4.20;3.80;;;18.10;99.90;;;;;;5034645;28;20168;-70
2023/08/26 01:13:29;;;;;;;8.53;5.20;;;18.20;99.90;;;;;;5034655;28;20453;-70
2023/08/26 01:15:57;;;;;;;5.87;5.00;;;18.00;99.90;;;;;;5036169;28;20452;-71
2023/08/26 01:18:23;;;;;;;8.07;4.87;;;18.00;99.90;;;;;;5051592;28;20424;-70
2023/08/26 01:20:49;;;;;;;10.13;4.70;;;17.70;99.90;;;;;;5054246;28;20405;-71
2023/08/26 01:23:23;;;;;;;6.47;4.70;;;17.60;99.90;;;;;;5054139;28;20714;-71
2023/08/26 01:25:49;;;;;;;7.80;5.37;;;17.40;99.90;;;;;;5053716;28;20405;-69
2023/08/26 01:28:14;;;;;;;8.63;5.33;;;17.30;99.90;;;;;;5054336;28;20408;-69
2023/08/26 01:30:40;;;;;;;6.07;5.47;;;17.20;99.90;;;;;;5054370;28;20247;-71
2023/08/26 01:33:28;;;;;;;8.80;4.97;;;17.10;99.90;;;;;;5053762;28;20191;-72
2023/08/26 01:36:00;;;;;;;5.77;4.73;;;17.00;99.90;;;;;;5033976;28;20450;-70
2023/08/26 01:38:27;;;;;;;5.73;5.13;;;16.90;99.90;;;;;;5034183;28;21035;-69
2023/08/26 01:40:56;;;;;;;9.00;5.80;;;16.80;99.90;;;;;;5034121;28;20402;-70
2023/08/26 01:43:23;;;;;;;6.63;5.20;;;16.70;99.90;;;;;;5038688;28;20460;-70
2023/08/26 01:45:51;;;;;;;16.00;9.53;;;16.60;99.90;;;;;;5045305;28;20425;-70
2023/08/26 01:48:16;;;;;;;7.03;5.30;;;16.60;99.90;;;;;;5048041;28;20425;-70
2023/08/26 01:50:42;;;;;;;7.50;5.03;;;16.50;99.90;;;;;;5053724;28;20471;-70
2023/08/26 01:53:08;;;;;;;5.67;5.03;;;16.40;99.90;;;;;;5053519;28;20265;-70
2023/08/26 01:55:34;;;;;;;7.57;6.03;;;16.30;99.90;;;;;;5053509;28;20189;-69
2023/08/26 01:57:59;;;;;;;9.27;4.93;;;16.30;99.90;;;;;;5053700;28;20397;-70
2023/08/26 02:00:25;;;;;;;8.90;5.73;;;16.10;99.90;;;;;;5053712;28;20242;-71
2023/08/26 02:02:50;;;;;;;7.47;5.53;;;16.10;99.90;;;;;;5053556;28;20269;-70
2023/08/26 02:05:16;;;;;;;7.70;5.73;;;16.00;99.90;;;;;;5034541;28;20195;-70
2023/08/26 02:07:42;;;;;;;6.97;5.63;;;16.00;99.90;;;;;;5033390;28;20183;-70
2023/08/26 02:10:08;;;;;;;6.90;6.07;;;15.80;99.90;;;;;;5033599;28;20156;-71
2023/08/26 02:12:34;;;;;;;9.17;6.27;;;15.80;99.90;;;;;;5033476;28;20424;-71
2023/08/26 02:15:01;;;;;;;10.30;4.53;;;15.70;99.90;;;;;;5033047;28;20796;-71
2023/08/26 02:17:26;;;;;;;7.73;4.67;;;15.70;99.90;;;;;;5045011;28;20250;-70
2023/08/26 02:19:52;;;;;;;5.70;3.50;;;15.60;99.90;;;;;;5052190;28;20818;-70
2023/08/26 02:22:18;;;;;;;6.30;4.37;;;15.60;99.90;;;;;;5052738;28;20187;-70
2023/08/26 02:24:43;;;;;;;8.10;4.33;;;15.50;99.90;;;;;;5053146;28;20242;-71
2023/08/26 02:27:09;;;;;;;7.60;3.80;;;15.40;99.90;;;;;;5051619;28;20206;-70
2023/08/26 02:29:34;;;;;;;10.23;4.00;;;15.40;99.90;;;;;;5053156;28;20675;-71
2023/08/26 02:32:00;;;;;;;5.47;2.50;;;15.30;99.90;;;;;;5053020;28;20737;-71
2023/08/26 02:34:26;;;;;;;5.87;2.73;;;15.30;99.90;;;;;;5040988;28;20660;-71
2023/08/26 02:36:51;;;;;;;5.30;3.27;;;15.30;99.90;;;;;;5031376;28;20245;-71
2023/08/26 02:39:17;;;;;;;6.13;3.63;;;15.20;99.90;;;;;;5031673;28;20164;-71
2023/08/26 02:41:42;;;;;;;6.00;3.20;;;15.30;99.90;;;;;;5032960;28;20417;-70
2023/08/26 02:44:08;;;;;;;6.53;3.27;;;15.30;99.90;;;;;;5042040;28;20253;-71
2023/08/26 02:46:34;;;;;;;4.00;2.57;;;15.20;99.90;;;;;;5050399;28;20202;-72
2023/08/26 02:49:01;;;;;;;3.77;2.70;;;15.20;99.90;;;;;;5052700;28;20179;-71
2023/08/26 02:51:26;;;;;;;3.30;2.73;;;15.20;99.90;;;;;;5052400;28;20170;-71
2023/08/26 02:53:52;;;;;;;5.60;2.80;;;15.10;99.90;;;;;;5052475;28;20491;-72
2023/08/26 02:56:17;;;;;;;8.70;2.50;;;15.00;99.90;;;;;;5052267;28;20191;-70
2023/08/26 02:58:43;;;;;;;4.43;2.53;;;15.00;99.90;;;;;;5052555;28;20167;-71
2023/08/26 03:01:08;;;;;;;3.83;2.33;;;15.00;99.90;;;;;;5047022;28;20650;-71
2023/08/26 03:03:34;;;;;;;5.80;2.43;;;14.90;99.90;;;;;;5032396;28;20184;-71
2023/08/26 03:06:00;;;;;;;3.83;2.37;;;14.90;99.90;;;;;;5032071;28;20175;-71
2023/08/26 03:08:26;;;;;;;4.90;2.27;;;14.80;99.90;;;;;;5032482;28;20194;-71
2023/08/26 03:11:00;;;;;;;8.30;2.57;;;14.80;99.90;;;;;;5032478;28;20434;-71
2023/08/26 03:13:26;;;;;;;4.73;2.70;;;14.70;99.90;;;;;;5032507;28;20187;-71
2023/08/26 03:15:51;;;;;;;4.80;3.43;;;14.70;99.90;;;;;;5032034;28;20935;-71
2023/08/26 03:18:17;;;;;;;2.07;1.77;;;14.60;99.90;;;;;;5032294;28;20194;-73
2023/08/26 03:20:42;;;;;;;3.73;2.23;;;14.60;99.90;;;;;;5032164;28;20171;-71
2023/08/26 03:23:08;;;;;;;4.60;3.00;;;14.50;99.90;;;;;;5032189;28;20240;-71
2023/08/26 03:25:38;;;;;;;4.20;2.17;;;14.40;99.90;;;;;;5031891;28;20648;-71
2023/08/26 03:28:03;;;;;;;3.93;2.57;;;14.40;99.90;;;;;;5030423;28;20645;-72
2023/08/26 03:30:29;;;;;;;3.57;2.50;;;14.40;99.90;;;;;;5032118;28;20510;-72
2023/08/26 03:32:54;;;;;;;2.13;1.90;;;14.30;99.90;;;;;;5030782;28;20187;-71
2023/08/26 03:35:20;;;;;;;3.57;2.13;;;14.30;99.90;;;;;;5031745;28;20501;-71
2023/08/26 03:37:45;;;;;;;6.63;2.20;;;14.20;99.90;;;;;;5036800;28;20163;-72
2023/08/26 03:40:11;;;;;;;2.50;2.30;;;14.20;99.90;;;;;;5051912;28;20257;-73
2023/08/26 03:42:37;;;;;;;3.70;2.03;;;14.20;99.90;;;;;;5047752;28;20191;-71
2023/08/26 03:45:04;;;;;;;2.27;1.97;;;14.10;99.90;;;;;;5049505;28;20764;-71
2023/08/26 03:47:30;;;;;;;4.27;2.10;;;14.10;99.90;;;;;;5051781;28;20413;-72
2023/08/26 03:49:56;;;;;;;4.43;2.10;;;14.10;99.90;;;;;;5051816;28;20418;-72
2023/08/26 03:52:21;;;;;;;3.50;2.07;;;14.10;99.90;;;;;;5051788;28;20455;-73
2023/08/26 03:54:47;;;;;;;3.17;1.90;;;14.00;99.90;;;;;;5052068;28;20171;-71
2023/08/26 03:57:12;;;;;;;3.77;2.00;;;14.00;99.90;;;;;;5051969;28;20205;-71
2023/08/26 03:59:38;;;;;;;2.60;1.60;;;14.00;99.90;;;;;;5056044;28;20632;-71
2023/08/26 04:02:04;;;;;;;1.97;1.77;;;13.90;99.90;;;;;;5044665;28;20187;-71
2023/08/26 04:04:30;;;;;;;6.00;1.93;;;13.90;99.90;;;;;;5035710;28;20159;-71
2023/08/26 04:06:57;;;;;;;3.10;2.00;;;13.90;99.90;;;;;;5035435;28;20195;-69
2023/08/26 04:09:23;;;;;;;3.77;2.10;;;13.90;99.90;;;;;;5035962;28;20406;-72
2023/08/26 04:11:49;;;;;;;4.40;2.00;;;13.80;99.90;;;;;;5035692;28;20439;-72
2023/08/26 04:14:14;;;;;;;2.90;2.70;;;13.80;99.90;;;;;;5035767;28;20418;-72
2023/08/26 04:16:40;;;;;;;3.77;2.80;;;13.80;99.90;;;;;;5035375;28;20481;-73
2023/08/26 04:19:06;;;;;;;4.23;2.10;;;13.70;99.90;;;;;;5035687;28;20195;-72
2023/08/26 04:21:32;;;;;;;4.67;2.20;;;13.70;99.90;;;;;;5035596;28;20812;-73
2023/08/26 04:23:57;;;;;;;1.40;1.30;;;13.70;99.90;;;;;;5038152;28;20175;-72
2023/08/26 04:26:23;;;;;;;2.30;1.73;;;13.70;99.90;;;;;;5053460;28;20929;-71
2023/08/26 04:28:49;;;;;;;1.50;1.40;;;13.70;99.90;;;;;;5055438;28;20182;-73
2023/08/26 04:31:14;;;;;;;2.17;1.90;;;13.70;99.90;;;;;;5055501;28;20198;-73
2023/08/26 04:33:40;;;;;;;2.67;1.60;;;13.70;99.90;;;;;;5055244;28;20198;-72
2023/08/26 04:36:06;;;;;;;2.10;1.30;;;13.70;99.90;;;;;;5055267;28;20206;-72
2023/08/26 04:38:31;;;;;;;1.83;1.10;;;13.70;99.90;;;;;;5055525;28;20410;-71
2023/08/26 04:40:57;;;;;;;1.43;1.33;;;13.70;99.90;;;;;;5055274;28;20198;-72
2023/08/26 04:43:25;;;;;;;2.00;1.63;;;13.70;99.90;;;;;;5045056;28;20691;-72
2023/08/26 04:45:52;;;;;;;2.00;1.60;;;13.70;99.90;;;;;;5040429;28;20505;-72
2023/08/26 04:48:18;;;;;;;3.10;1.40;;;13.70;99.90;;;;;;5054364;28;20416;-72
2023/08/26 04:50:44;;;;;;;4.30;1.30;;;13.70;99.90;;;;;;5054580;28;20421;-72
2023/08/26 04:53:09;;;;;;;2.70;1.77;;;13.70;99.90;;;;;;5054791;28;20277;-72
2023/08/26 04:55:36;;;;;;;7.23;2.00;;;13.70;99.90;;;;;;5047081;28;20206;-71
2023/08/26 04:58:01;;;;;;;1.30;1.20;;;13.70;99.90;;;;;;5042451;28;20172;-71
2023/08/26 05:00:27;;;;;;;2.33;1.50;;;13.70;99.90;;;;;;5043042;28;20572;-72
2023/08/26 05:02:52;;;;;;;4.20;2.03;;;13.70;99.90;;;;;;5053846;28;20295;-71
2023/08/26 05:05:18;;;;;;;2.47;2.13;;;13.70;99.90;;;;;;5054486;28;20167;-70
2023/08/26 05:07:44;;;;;;;6.10;1.70;;;13.70;99.90;;;;;;5054666;28;20175;-72
2023/08/26 05:10:10;;;;;;;3.47;1.23;;;13.70;99.90;;;;;;5053508;28;20171;-72
2023/08/26 05:12:35;;;;;;;1.73;1.17;;;13.70;99.90;;;;;;5054751;28;20195;-71
2023/08/26 05:15:03;;;;;;;1.43;1.17;;;13.70;99.90;;;;;;5054252;28;20163;-72
2023/08/26 05:17:28;;;;;;;3.90;1.37;;;13.70;99.90;;;;;;5054577;28;20224;-71
2023/08/26 05:19:54;;;;;;;1.57;1.17;;;13.70;99.90;;;;;;5054325;28;20413;-72
2023/08/26 05:22:21;;;;;;;3.20;1.20;;;13.70;99.90;;;;;;5053179;28;20244;-71
2023/08/26 05:24:46;;;;;;;2.10;1.10;;;13.80;99.90;;;;;;5054396;28;20225;-71
2023/08/26 05:27:14;;;;;;;1.70;1.30;;;13.90;99.90;;;;;;5052906;28;20886;-72
2023/08/26 05:29:40;;;;;;;1.60;1.23;;;13.90;99.90;;;;;;5054119;28;20167;-71
2023/08/26 05:32:06;;;;;;;2.80;1.50;;;14.10;99.90;;;;;;5054031;28;20433;-73
2023/08/26 05:34:31;;;;;;;1.97;1.40;;;14.20;99.90;;;;;;5054256;28;20175;-72
2023/08/26 05:36:58;;;;;;;3.53;1.10;;;14.30;99.90;;;;;;5053871;28;20241;-71
2023/08/26 05:39:23;;;;;;;2.83;1.40;;;14.50;99.90;;;;;;5052952;28;20659;-71
2023/08/26 05:41:49;;;;;;;1.33;1.07;;;14.70;99.90;;;;;;5054561;28;20453;-72
2023/08/26 05:44:14;;;;;;;2.57;1.40;;;14.80;99.90;;;;;;5046174;28;20529;-73
2023/08/26 05:46:40;;;;;;;1.53;1.43;;;15.00;99.90;;;;;;5047017;28;20179;-71
2023/08/26 05:49:05;;;;;;;1.20;1.00;;;15.20;99.90;;;;;;5053455;28;20178;-71
2023/08/26 05:51:31;;;;;;;1.60;1.00;;;15.40;99.90;;;;;;5052722;28;20257;-70
2023/08/26 05:53:56;;;;;;;3.50;1.40;;;15.70;99.90;;;;;;5053946;28;20167;-72
2023/08/26 05:56:22;;;;;;;2.03;1.40;;;16.00;99.90;;;;;;5053416;28;20202;-72
2023/08/26 05:58:48;;;;;;;2.70;1.27;;;16.20;99.90;;;;;;5053637;28;20304;-71
2023/08/26 06:01:13;;;;;;;1.73;1.20;;;16.40;99.90;;;;;;5052143;28;20202;-72
2023/08/26 06:03:39;;;;;;;1.60;1.10;;;16.60;99.90;;;;;;5033708;28;20197;-72
2023/08/26 06:06:05;;;;;;;3.27;0.93;;;16.80;99.90;;;;;;5037430;28;20182;-72
2023/08/26 06:08:31;;;;;;;1.20;0.90;;;17.10;99.90;;;;;;5045898;28;20206;-73
2023/08/26 06:10:57;;;;;;;2.10;1.50;;;17.50;99.90;;;;;;5053199;28;20938;-71
2023/08/26 06:13:22;;;;;;;2.00;1.30;;;18.00;99.90;;;;;;5054008;28;20282;-72
2023/08/26 06:15:58;;;;;;;1.40;1.17;;;18.60;99.90;;;;;;5053111;28;20209;-72
2023/08/26 06:18:23;;;;;;;1.70;1.40;;;19.30;99.90;;;;;;5053396;28;20186;-72
2023/08/26 06:20:52;;;;;;;1.40;1.30;;;19.50;99.90;;;;;;5052458;28;20448;-72
2023/08/26 06:23:19;;;;;;;1.10;1.00;;;19.40;99.90;;;;;;5053289;28;20209;-72
2023/08/26 06:25:55;;;;;;;3.27;1.33;;;19.40;99.90;;;;;;5047177;28;20456;-70
2023/08/26 06:28:21;;;;;;;2.57;1.07;;;20.10;99.90;;;;;;5049834;28;20914;-71
2023/08/26 06:30:47;;;;;;;1.20;1.10;;;20.80;99.90;;;;;;5051807;28;20475;-73
2023/08/26 06:33:13;;;;;;;1.40;1.20;;;21.60;99.90;;;;;;5053103;28;20437;-71
2023/08/26 06:35:39;;;;;;;3.53;1.17;;;22.50;99.90;;;;;;5052733;28;20230;-71
2023/08/26 06:38:04;;;;;;;1.40;1.30;;;23.10;99.90;;;;;;5052967;28;20472;-71
2023/08/26 06:40:31;;;;;;;1.63;1.43;;;23.90;98.90;;;;;;5052753;28;20538;-70
2023/08/26 06:42:57;;;;;;;1.50;1.37;;;24.00;90.50;;;;;;5048496;28;20206;-71
2023/08/26 06:45:23;;;;;;;6.10;1.50;;;24.20;89.00;;;;;;5032676;28;20419;-71
2023/08/26 06:47:48;;;;;;;2.23;1.20;;;24.10;79.40;;;;;;5051358;28;20420;-73
2023/08/26 06:50:14;;;;;;;1.57;1.47;;;23.90;81.70;;;;;;5046953;28;20182;-72
2023/08/26 06:52:40;;;;;;;1.43;1.33;;;23.70;82.90;;;;;;5047957;28;20187;-72
2023/08/26 06:55:08;;;;;;;3.00;1.40;;;23.20;82.90;;;;;;5052287;28;20238;-73
2023/08/26 06:57:35;;;;;;;1.30;1.20;;;22.70;84.30;;;;;;5052344;28;20273;-74
2023/08/26 07:00:05;;;;;;;4.50;1.43;;;22.30;90.20;;;;;;5052616;28;20405;-72
2023/08/26 07:02:30;;;;;;;2.80;1.60;;;21.60;94.10;;;;;;5052501;28;20787;-72
2023/08/26 07:04:56;;;;;;;2.20;1.37;;;21.30;99.90;;;;;;5052419;28;20406;-73
2023/08/26 07:07:21;;;;;;;2.23;1.23;;;21.70;99.90;;;;;;5052294;28;20717;-73
2023/08/26 07:09:47;;;;;;;1.50;1.30;;;22.70;99.90;;;;;;5052458;28;20185;-72
2023/08/26 07:12:14;;;;;;;4.70;1.07;;;23.80;93.50;;;;;;5052401;28;20237;-73
2023/08/26 07:14:40;;;;;;;2.70;1.40;;;24.90;89.10;;;;;;5052329;28;20410;-73
2023/08/26 07:17:05;;;;;;;2.10;1.47;;;26.20;75.20;;;;;;5052005;28;20849;-74
2023/08/26 07:19:31;;;;;;;2.50;1.30;;;27.30;66.00;;;;;;5046061;28;20179;-72
2023/08/26 07:21:56;;;;;;;2.90;1.40;;;28.20;58.50;;;;;;5045959;28;20183;-72
2023/08/26 07:24:22;;;;;;;1.73;1.30;;;28.90;54.40;;;;;;5046262;28;20167;-72
2023/08/26 07:26:47;;;;;;;1.73;1.33;;;30.10;53.30;;;;;;5045473;28;20652;-71
2023/08/26 07:29:13;;;;;;;1.97;1.30;;;31.00;49.10;;;;;;5052010;28;20236;-71
2023/08/26 07:31:40;;;;;;;6.37;1.60;;;31.40;48.30;;;;;;5052035;28;20175;-73
2023/08/26 07:34:06;;;;;;;3.20;1.10;;;31.00;46.30;;;;;;5052106;28;20624;-74
2023/08/26 07:36:31;;;;;;;3.30;1.53;;;29.80;45.50;;;;;;5040565;28;20457;-71
2023/08/26 07:38:57;;;;;;;2.40;1.20;;;28.80;47.00;;;;;;5039236;28;20167;-71
2023/08/26 07:41:22;;;;;;;1.90;1.30;;;28.50;48.10;;;;;;5043812;28;20190;-74
2023/08/26 07:43:48;;;;;;;3.00;1.53;;;28.60;48.50;;;;;;5051840;28;20174;-73
2023/08/26 07:46:15;;;;;;;3.20;1.37;;;28.10;48.60;;;;;;5051450;28;20175;-71
2023/08/26 07:48:41;;;;;;;1.20;1.10;;;27.20;49.50;;;;;;5051692;28;20162;-73
2023/08/26 07:51:06;;;;;;;4.90;1.53;;;26.30;50.20;;;;;;5051808;28;20501;-70
2023/08/26 07:53:32;;;;;;;2.40;1.10;;;25.80;51.80;;;;;;5051760;28;20241;-71
2023/08/26 07:55:57;;;;;;;2.63;1.20;;;25.40;52.80;;;;;;5051535;28;20676;-71
2023/08/26 07:58:23;;;;;;;3.13;1.40;;;25.10;55.20;;;;;;5051776;28;20174;-74
2023/08/26 08:00:48;;;;;;;1.97;1.03;;;24.60;55.50;;;;;;5050647;28;20170;-71
2023/08/26 08:03:14;;;;;;;4.20;1.23;;;24.10;57.90;;;;;;5051674;28;20187;-75
2023/08/26 08:05:39;;;;;;;1.43;0.97;;;24.00;60.00;;;;;;5051465;28;20163;-72
2023/08/26 08:08:05;;;;;;;1.80;1.37;;;23.90;60.20;;;;;;5051616;28;20659;-74
2023/08/26 08:10:30;;;;;;;2.33;1.10;;;23.90;63.50;;;;;;5051699;28;20178;-72
2023/08/26 08:12:56;;;;;;;2.63;1.43;;;24.00;62.10;;;;;;5051566;28;20194;-72
2023/08/26 08:15:21;;;;;;;1.57;1.00;;;24.20;64.00;;;;;;5051311;28;20217;-71
2023/08/26 08:17:47;;;;;;;3.53;1.43;;;24.80;62.50;;;;;;5051607;28;20167;-71
2023/08/26 08:20:12;;;;;;;2.33;1.13;;;25.20;58.70;;;;;;5051570;28;20660;-73
2023/08/26 08:22:43;;;;;;;2.17;1.23;;;25.70;57.80;;;;;;5051440;28;20590;-72
2023/08/26 08:25:09;;;;;;;1.50;1.00;;;26.20;57.50;;;;;;5051112;28;20193;-72
2023/08/26 08:27:37;;;;;;;1.30;1.10;;;26.90;55.50;;;;;;5051447;28;20439;-72
2023/08/26 08:30:03;;;;;;;1.90;1.33;;;27.90;54.10;;;;;;5051543;28;20424;-71
2023/08/26 08:32:29;;;;;;;1.60;1.10;;;28.80;49.60;;;;;;5051414;28;20421;-72
2023/08/26 08:34:55;;;;;;;1.20;1.10;;;29.70;48.10;;;;;;5051197;28;20474;-72
2023/08/26 08:37:20;;;;;;;1.17;1.07;;;31.20;46.30;;;;;;5051361;28;20202;-72
2023/08/26 08:39:46;;;;;;;2.33;1.30;;;32.80;44.50;;;;;;5051651;28;20170;-72
2023/08/26 08:42:15;;;;;;;4.50;1.87;;;33.60;40.70;;;;;;5051325;28;20431;-72
2023/08/26 08:44:43;;;;;;;3.70;2.30;;;34.30;38.70;;;;;;5054138;28;20159;-74
2023/08/26 08:47:10;;;;;;;2.23;1.23;;;35.40;38.20;;;;;;5054948;28;20433;-74
2023/08/26 08:49:36;;;;;;;2.77;1.20;;;36.60;35.90;;;;;;5053795;28;20401;-74
2023/08/26 08:52:05;;;;;;;1.50;1.13;;;37.40;33.50;;;;;;5055246;28;20425;-73
2023/08/26 08:54:32;;;;;;;1.67;1.10;;;38.80;32.90;;;;;;5054977;28;20492;-73
2023/08/26 08:56:58;;;;;;;2.10;1.30;;;40.00;30.10;;;;;;5054873;28;20529;-74
2023/08/26 08:59:27;;;;;;;1.87;1.30;;;41.20;28.80;;;;;;5055289;28;20401;-74
2023/08/26 09:01:55;;;;;;;1.30;1.20;;;41.10;26.70;;;;;;5055097;28;20452;-74
2023/08/26 09:04:21;;;;;;;1.57;1.10;;;41.00;26.50;;;;;;5055189;28;20402;-73
2023/08/26 09:06:48;;;;;;;2.20;1.50;;;40.80;26.00;;;;;;5052849;28;20934;-73
2023/08/26 09:09:15;;;;;;;1.20;1.07;;;40.60;26.30;;;;;;5054736;28;20413;-75
2023/08/26 09:11:41;;;;;;;1.63;1.20;;;40.40;26.40;;;;;;5054689;28;20405;-74
2023/08/26 09:14:07;;;;;;;2.50;0.93;;;40.50;26.00;;;;;;5054640;28;20961;-73
2023/08/26 09:16:37;;;;;;;2.20;1.50;;;40.70;26.80;;;;;;5054304;28;20683;-74
2023/08/26 09:19:07;;;;;;;2.03;1.50;;;42.10;26.80;;;;;;5054638;28;20213;-73
2023/08/26 09:21:33;;;;;;;1.77;1.63;;;43.90;26.00;;;;;;5054433;28;20405;-73
2023/08/26 09:24:00;;;;;;;1.47;1.37;;;44.80;24.60;;;;;;5054475;28;20398;-73
2023/08/26 09:26:26;;;;;;;1.50;1.40;;;46.00;25.70;;;;;;5053974;28;20628;-74
2023/08/26 09:28:52;;;;;;;1.30;1.20;;;47.00;25.00;;;;;;5054294;28;20400;-74
2023/08/26 09:31:19;;;;;;;2.33;1.23;;;47.70;22.20;;;;;;5052939;28;20440;-74
2023/08/26 09:34:01;;;;;;;1.87;1.33;;;48.30;22.30;;;;;;5054159;28;20425;-73
2023/08/26 09:36:42;;;;;;;1.40;1.30;;;48.40;21.70;;;;;;5053917;28;20577;-74
2023/08/26 09:39:14;;;;;;;1.27;1.17;;;48.10;21.40;;;;;;5054138;28;20404;-74
2023/08/26 09:41:44;;;;;;;1.33;1.20;;;48.70;22.10;;;;;;5053966;28;20425;-74
2023/08/26 09:44:10;;;;;;;1.43;1.33;;;49.30;21.70;;;;;;5053988;28;20381;-74
2023/08/26 09:46:36;;;;;;;1.57;1.47;;;50.30;22.60;;;;;;5053813;28;20380;-75
2023/08/26 09:49:03;;;;;;;3.27;2.73;;;50.50;19.90;;;;;;5052726;28;20382;-74
2023/08/26 09:51:29;;;;;;;2.13;1.60;;;50.20;19.80;;;;;;5053842;28;20657;-75
2023/08/26 09:53:56;;;;;;;2.00;1.20;;;50.10;20.10;;;;;;5053954;28;20463;-74
2023/08/26 09:56:24;;;;;;;1.43;1.33;;;49.50;19.70;;;;;;5051215;28;20439;-75
2023/08/26 09:58:50;;;;;;;1.60;1.50;;;49.60;20.50;;;;;;5055203;28;20726;-75
2023/08/26 10:01:21;;;;;;;1.50;1.40;;;49.40;20.20;;;;;;5054873;28;20372;-75
2023/08/26 10:03:52;;;;;;;1.97;1.57;;;50.20;20.40;;;;;;5054602;28;20413;-75
2023/08/26 10:06:21;;;;;;;1.63;1.53;;;50.90;20.30;;;;;;5054166;28;20414;-75
2023/08/26 10:08:51;;;;;;;2.13;1.70;;;51.40;20.00;;;;;;5054135;28;20384;-75
2023/08/26 10:11:19;;;;;;;1.50;1.40;;;50.50;19.50;;;;;;5054147;28;20437;-75
2023/08/26 10:13:50;;;;;;;1.30;1.20;;;49.50;19.10;;;;;;5053698;28;20453;-75
2023/08/26 10:16:18;;;;;;;1.47;1.37;;;49.40;19.70;;;;;;5053679;28;20461;-75
2023/08/26 10:18:48;;;;;;;1.47;1.37;;;50.40;20.30;;;;;;5053576;28;20454;-75
2023/08/26 10:21:14;;;;;;;1.67;1.57;;;49.90;19.10;;;;;;5053360;28;20865;-75
2023/08/26 10:23:41;;;;;;;2.33;1.50;;;50.20;20.20;;;;;;5054017;28;20887;-74
2023/08/26 10:26:08;;;;;;;1.47;1.37;;;48.60;18.20;;;;;;5053634;28;20869;-74
2023/08/26 10:28:34;;;;;;;1.50;1.40;;;48.50;19.50;;;;;;5052164;28;20392;-75
2023/08/26 10:31:05;;;;;;;1.40;1.17;;;48.10;20.30;;;;;;5053345;28;20413;-74
2023/08/26 10:33:31;;;;;;;1.53;1.43;;;48.20;19.70;;;;;;5053251;28;20421;-75
2023/08/26 10:35:58;;;;;;;2.10;1.40;;;47.50;19.60;;;;;;5052781;28;20505;-75
2023/08/26 10:38:23;;;;;;;1.40;1.30;;;47.50;20.00;;;;;;5053261;28;20586;-75
2023/08/26 10:40:49;;;;;;;1.57;1.47;;;48.20;19.70;;;;;;5053008;28;20397;-74
2023/08/26 10:43:15;;;;;;;2.50;1.90;;;47.10;19.90;;;;;;5052929;28;20198;-75
2023/08/26 10:45:50;;;;;;;2.13;1.47;;;44.50;19.70;;;;;;5052684;28;20171;-74
2023/08/26 10:48:16;;;;;;;1.27;1.17;;;43.80;20.60;;;;;;5052857;28;20198;-75
2023/08/26 10:50:46;;;;;;;1.30;1.20;;;44.30;22.00;;;;;;5052802;28;20444;-74
2023/08/26 10:53:21;;;;;;;1.70;1.60;;;43.80;20.70;;;;;;5052896;28;20248;-74
2023/08/26 10:55:50;;;;;;;1.60;1.30;;;43.80;21.40;;;;;;5052767;28;20419;-74
2023/08/26 10:58:18;;;;;;;1.83;1.37;;;45.20;22.80;;;;;;5052852;28;20957;-75
2023/08/26 11:00:48;;;;;;;1.60;1.50;;;47.40;22.90;;;;;;5052912;28;20411;-76
2023/08/26 11:03:16;;;;;;;1.60;1.50;;;49.30;21.50;;;;;;5051912;28;20450;-75
2023/08/26 11:05:44;;;;;;;1.50;1.40;;;50.30;19.20;;;;;;5052417;28;20392;-75
2023/08/26 11:08:09;;;;;;;1.83;1.63;;;50.60;18.50;;;;;;5052714;28;20486;-75
2023/08/26 11:10:40;;;;;;;2.03;1.60;;;50.70;18.70;;;;;;5051450;28;20469;-75
2023/08/26 11:13:09;;;;;;;1.40;1.30;;;50.80;18.70;;;;;;5052873;28;20182;-74
2023/08/26 11:15:40;;;;;;;1.50;1.40;;;50.20;18.20;;;;;;5052239;28;20391;-74
2023/08/26 11:18:07;;;;;;;1.27;1.17;;;48.90;18.70;;;;;;5052613;28;20401;-75
2023/08/26 11:20:33;;;;;;;1.37;1.27;;;48.60;19.30;;;;;;5051117;28;20388;-75
2023/08/26 11:23:00;;;;;;;1.40;1.30;;;49.80;20.70;;;;;;5052642;28;20399;-75
2023/08/26 11:25:26;;;;;;;1.50;1.40;;;51.10;19.80;;;;;;5052359;28;20159;-75
2023/08/26 11:27:52;;;;;;;1.50;1.40;;;51.10;18.20;;;;;;5052496;28;20382;-75
2023/08/26 11:30:17;;;;;;;1.40;1.30;;;49.90;18.50;;;;;;5052352;28;20273;-75
2023/08/26 11:32:48;;;;;;;2.27;2.07;;;47.70;19.40;;;;;;5052232;28;20194;-74
2023/08/26 11:35:14;;;;;;;2.43;2.23;;;46.70;19.40;;;;;;5052159;28;20246;-74
2023/08/26 11:37:42;;;;;;;2.13;1.93;;;46.50;19.50;;;;;;5052056;28;20544;-75
2023/08/26 11:40:08;;;;;;;1.47;1.30;;;45.10;20.50;;;;;;5052069;28;20177;-74
2023/08/26 11:42:34;;;;;;;2.37;1.67;;;45.80;21.50;;;;;;5052029;28;20450;-75
2023/08/26 11:44:59;;;;;;;1.67;1.57;;;47.30;21.20;;;;;;5051878;28;20920;-76
2023/08/26 11:47:25;;;;;;;1.70;1.60;;;47.10;20.80;;;;;;5052007;28;20186;-74
2023/08/26 11:49:57;;;;;;;2.30;1.70;;;46.40;21.50;;;;;;5052071;28;20202;-74
2023/08/26 11:52:31;;;;;;;1.93;1.40;;;46.90;21.90;;;;;;5052063;28;20205;-74
2023/08/26 11:54:57;;;;;;;1.80;1.50;;;47.70;20.80;;;;;;5051819;28;20813;-75
2023/08/26 11:57:23;;;;;;;1.97;1.77;;;48.60;21.50;;;;;;5050524;28;20476;-75
2023/08/26 11:59:49;;;;;;;1.50;1.40;;;50.10;21.50;;;;;;5050761;28;20186;-75
2023/08/26 12:02:24;;;;;;;3.00;1.80;;;50.90;19.40;;;;;;5050952;28;20917;-75
2023/08/26 12:04:57;;;;;;;1.50;1.40;;;50.50;18.70;;;;;;5051911;28;20379;-74
2023/08/26 12:07:23;;;;;;;1.40;1.30;;;49.60;18.50;;;;;;5051336;28;20859;-75
2023/08/26 12:09:49;;;;;;;1.40;1.30;;;48.70;19.10;;;;;;5050200;28;20388;-74
2023/08/26 12:12:21;;;;;;;2.13;1.40;;;48.50;19.90;;;;;;5051675;28;20408;-75
2023/08/26 12:14:46;;;;;;;2.50;1.50;;;47.80;18.90;;;;;;5050463;28;20209;-74
2023/08/26 12:17:13;;;;;;;1.73;1.40;;;46.50;19.60;;;;;;5051356;28;20521;-75
2023/08/26 12:19:41;;;;;;;2.30;1.30;;;45.60;20.00;;;;;;5054744;28;20179;-74
2023/08/26 12:22:07;;;;;;;1.40;1.27;;;45.50;20.60;;;;;;5055431;28;20487;-74
2023/08/26 12:24:37;;;;;;;1.90;1.50;;;44.00;21.00;;;;;;5055601;28;20782;-73
2023/08/26 12:27:10;;;;;;;2.37;2.17;;;41.90;21.70;;;;;;5055265;28;20811;-74
2023/08/26 12:29:36;;;;;;;2.00;1.90;;;39.70;23.20;;;;;;5055550;28;20816;-72
2023/08/26 12:32:04;;;;;;;1.70;1.60;;;38.40;24.70;;;;;;5055391;28;20946;-72
2023/08/26 12:34:30;;;;;;;2.83;1.90;;;37.10;25.30;;;;;;5055403;28;20406;-73
2023/08/26 12:36:56;;;;;;;2.50;1.53;;;35.80;25.90;;;;;;5054919;28;20465;-73
2023/08/26 12:39:24;;;;;;;1.60;1.37;;;36.60;27.30;;;;;;5055335;28;20409;-73
2023/08/26 12:41:53;;;;;;;1.50;1.30;;;36.40;26.70;;;;;;5055141;28;20460;-73